sensor_id;sensor_type;location;lat;lon;timestamp;P1;durP1;ratioP1;P2;durP2;ratioP2
79284;SDS011;68734;50.452;11.636;2023-03-21T00:00:33;5.07;;;2.60;;
79284;SDS011;68734;50.452;11.636;2023-03-21T00:02:58;4.88;;;2.67;;
79284;SDS011;68734;50.452;11.636;2023-03-21T00:05:24;3.78;;;2.70;;
79284;SDS011;68734;50.452;11.636;2023-03-21T00:07:49;4.75;;;3.38;;
79284;SDS011;68734;50.452;11.636;2023-03-21T00:10:16;6.43;;;2.55;;
79284;SDS011;68734;50.452;11.636;2023-03-21T00:12:41;4.70;;;2.67;;
79284;SDS011;68734;50.452;11.636;2023-03-21T00:15:07;3.63;;;2.60;;
79284;SDS011;68734;50.452;11.636;2023-03-21T00:17:34;8.25;;;2.90;;
79284;SDS011;68734;50.452;11.636;2023-03-21T00:20:02;4.72;;;2.80;;
79284;SDS011;68734;50.452;11.636;2023-03-21T00:22:35;4.90;;;3.05;;
79284;SDS011;68734;50.452;11.636;2023-03-21T00:25:01;4.55;;;2.85;;
79284;SDS011;68734;50.452;11.636;2023-03-21T00:27:27;6.93;;;2.97;;
79284;SDS011;68734;50.452;11.636;2023-03-21T00:29:55;7.25;;;4.78;;
79284;SDS011;68734;50.452;11.636;2023-03-21T00:32:20;5.60;;;2.72;;
79284;SDS011;68734;50.452;11.636;2023-03-21T00:34:46;4.47;;;2.80;;
79284;SDS011;68734;50.452;11.636;2023-03-21T00:37:12;6.45;;;2.42;;
79284;SDS011;68734;50.452;11.636;2023-03-21T00:39:41;6.43;;;3.38;;
79284;SDS011;68734;50.452;11.636;2023-03-21T00:42:08;2.97;;;2.17;;
79284;SDS011;68734;50.452;11.636;2023-03-21T00:44:36;4.88;;;2.30;;
79284;SDS011;68734;50.452;11.636;2023-03-21T00:47:02;4.55;;;2.97;;
79284;SDS011;68734;50.452;11.636;2023-03-21T00:49:30;4.47;;;2.55;;
79284;SDS011;68734;50.452;11.636;2023-03-21T00:52:01;5.18;;;2.63;;
79284;SDS011;68734;50.452;11.636;2023-03-21T00:54:30;5.10;;;2.53;;
79284;SDS011;68734;50.452;11.636;2023-03-21T00:56:57;5.40;;;2.45;;
79284;SDS011;68734;50.452;11.636;2023-03-21T00:59:22;5.13;;;3.35;;
79284;SDS011;68734;50.452;11.636;2023-03-21T01:01:48;6.18;;;3.40;;
79284;SDS011;68734;50.452;11.636;2023-03-21T01:04:20;5.60;;;3.05;;
79284;SDS011;68734;50.452;11.636;2023-03-21T01:06:50;4.65;;;2.75;;
79284;SDS011;68734;50.452;11.636;2023-03-21T01:09:18;5.10;;;2.85;;
79284;SDS011;68734;50.452;11.636;2023-03-21T01:11:46;3.80;;;2.03;;
79284;SDS011;68734;50.452;11.636;2023-03-21T01:14:13;6.72;;;2.85;;
79284;SDS011;68734;50.452;11.636;2023-03-21T01:16:40;8.13;;;2.60;;
79284;SDS011;68734;50.452;11.636;2023-03-21T01:19:06;4.93;;;3.05;;
79284;SDS011;68734;50.452;11.636;2023-03-21T01:21:32;5.30;;;2.78;;
79284;SDS011;68734;50.452;11.636;2023-03-21T01:23:58;3.20;;;2.25;;
79284;SDS011;68734;50.452;11.636;2023-03-21T01:26:25;5.05;;;2.92;;
79284;SDS011;68734;50.452;11.636;2023-03-21T01:28:51;5.57;;;2.30;;
79284;SDS011;68734;50.452;11.636;2023-03-21T01:31:17;3.80;;;2.17;;
79284;SDS011;68734;50.452;11.636;2023-03-21T01:33:43;4.93;;;2.50;;
79284;SDS011;68734;50.452;11.636;2023-03-21T01:36:19;4.07;;;2.45;;
79284;SDS011;68734;50.452;11.636;2023-03-21T01:38:48;4.13;;;2.38;;
79284;SDS011;68734;50.452;11.636;2023-03-21T01:43:55;3.20;;;2.10;;
79284;SDS011;68734;50.452;11.636;2023-03-21T01:46:25;6.18;;;2.45;;
79284;SDS011;68734;50.452;11.636;2023-03-21T01:51:52;5.85;;;2.47;;
79284;SDS011;68734;50.452;11.636;2023-03-21T01:54:26;6.22;;;2.22;;
79284;SDS011;68734;50.452;11.636;2023-03-21T01:57:00;3.95;;;2.63;;
79284;SDS011;68734;50.452;11.636;2023-03-21T01:59:44;3.17;;;2.55;;
79284;SDS011;68734;50.452;11.636;2023-03-21T02:02:15;6.30;;;2.47;;
79284;SDS011;68734;50.452;11.636;2023-03-21T02:04:47;4.53;;;2.60;;
79284;SDS011;68734;50.452;11.636;2023-03-21T02:07:15;4.25;;;1.95;;
79284;SDS011;68734;50.452;11.636;2023-03-21T02:09:47;6.60;;;2.90;;
79284;SDS011;68734;50.452;11.636;2023-03-21T02:12:16;4.45;;;2.65;;
79284;SDS011;68734;50.452;11.636;2023-03-21T02:14:42;4.75;;;2.58;;
79284;SDS011;68734;50.452;11.636;2023-03-21T02:17:17;4.28;;;2.50;;
79284;SDS011;68734;50.452;11.636;2023-03-21T02:27:45;5.32;;;2.45;;
79284;SDS011;68734;50.452;11.636;2023-03-21T02:35:52;6.22;;;3.22;;
79284;SDS011;68734;50.452;11.636;2023-03-21T02:47:01;5.90;;;2.75;;
79284;SDS011;68734;50.452;11.636;2023-03-21T02:52:07;11.02;;;3.67;;
79284;SDS011;68734;50.452;11.636;2023-03-21T02:54:36;5.85;;;2.85;;
79284;SDS011;68734;50.452;11.636;2023-03-21T02:57:03;5.32;;;3.30;;
79284;SDS011;68734;50.452;11.636;2023-03-21T02:59:34;6.78;;;3.38;;
79284;SDS011;68734;50.452;11.636;2023-03-21T03:04:29;6.18;;;2.85;;
79284;SDS011;68734;50.452;11.636;2023-03-21T03:07:12;11.20;;;4.03;;
79284;SDS011;68734;50.452;11.636;2023-03-21T03:23:35;4.32;;;2.90;;
79284;SDS011;68734;50.452;11.636;2023-03-21T03:26:22;4.25;;;2.95;;
79284;SDS011;68734;50.452;11.636;2023-03-21T03:28:54;4.25;;;3.13;;
79284;SDS011;68734;50.452;11.636;2023-03-21T03:31:24;5.93;;;3.40;;
79284;SDS011;68734;50.452;11.636;2023-03-21T03:33:56;7.00;;;3.20;;
79284;SDS011;68734;50.452;11.636;2023-03-21T03:36:29;5.55;;;3.65;;
79284;SDS011;68734;50.452;11.636;2023-03-21T03:39:00;7.32;;;3.55;;
79284;SDS011;68734;50.452;11.636;2023-03-21T03:41:33;7.45;;;4.25;;
79284;SDS011;68734;50.452;11.636;2023-03-21T03:44:08;5.95;;;3.53;;
79284;SDS011;68734;50.452;11.636;2023-03-21T03:46:45;5.65;;;3.88;;
79284;SDS011;68734;50.452;11.636;2023-03-21T03:49:16;7.35;;;4.22;;
79284;SDS011;68734;50.452;11.636;2023-03-21T03:54:21;8.30;;;4.50;;
79284;SDS011;68734;50.452;11.636;2023-03-21T03:56:52;7.47;;;4.68;;
79284;SDS011;68734;50.452;11.636;2023-03-21T03:59:20;8.32;;;4.13;;
79284;SDS011;68734;50.452;11.636;2023-03-21T04:01:49;6.95;;;4.72;;
79284;SDS011;68734;50.452;11.636;2023-03-21T04:04:18;9.13;;;5.45;;
79284;SDS011;68734;50.452;11.636;2023-03-21T04:06:46;6.07;;;4.22;;
79284;SDS011;68734;50.452;11.636;2023-03-21T04:09:16;8.13;;;4.75;;
79284;SDS011;68734;50.452;11.636;2023-03-21T04:11:42;7.50;;;4.38;;
79284;SDS011;68734;50.452;11.636;2023-03-21T04:14:07;6.40;;;3.78;;
79284;SDS011;68734;50.452;11.636;2023-03-21T04:16:33;6.60;;;3.60;;
79284;SDS011;68734;50.452;11.636;2023-03-21T04:18:58;6.50;;;3.97;;
79284;SDS011;68734;50.452;11.636;2023-03-21T04:21:24;6.57;;;3.30;;
79284;SDS011;68734;50.452;11.636;2023-03-21T04:23:51;8.10;;;4.07;;
79284;SDS011;68734;50.452;11.636;2023-03-21T04:26:19;9.65;;;3.53;;
79284;SDS011;68734;50.452;11.636;2023-03-21T04:28:45;4.90;;;3.35;;
79284;SDS011;68734;50.452;11.636;2023-03-21T04:31:11;8.60;;;4.03;;
79284;SDS011;68734;50.452;11.636;2023-03-21T04:33:37;11.63;;;3.88;;
79284;SDS011;68734;50.452;11.636;2023-03-21T04:36:06;9.68;;;4.07;;
79284;SDS011;68734;50.452;11.636;2023-03-21T04:38:33;7.63;;;4.13;;
79284;SDS011;68734;50.452;11.636;2023-03-21T04:40:59;7.43;;;4.35;;
79284;SDS011;68734;50.452;11.636;2023-03-21T04:43:26;6.63;;;3.97;;
79284;SDS011;68734;50.452;11.636;2023-03-21T04:45:52;5.30;;;3.40;;
79284;SDS011;68734;50.452;11.636;2023-03-21T04:48:18;7.57;;;4.05;;
79284;SDS011;68734;50.452;11.636;2023-03-21T04:50:47;9.15;;;3.78;;
79284;SDS011;68734;50.452;11.636;2023-03-21T04:53:16;7.47;;;3.65;;
79284;SDS011;68734;50.452;11.636;2023-03-21T04:55:42;8.07;;;3.70;;
79284;SDS011;68734;50.452;11.636;2023-03-21T04:58:07;5.30;;;3.55;;
79284;SDS011;68734;50.452;11.636;2023-03-21T05:00:32;5.97;;;4.07;;
79284;SDS011;68734;50.452;11.636;2023-03-21T05:03:05;7.32;;;3.45;;
79284;SDS011;68734;50.452;11.636;2023-03-21T05:05:40;6.85;;;3.75;;
79284;SDS011;68734;50.452;11.636;2023-03-21T05:08:05;6.82;;;3.70;;
79284;SDS011;68734;50.452;11.636;2023-03-21T05:10:31;8.40;;;3.45;;
79284;SDS011;68734;50.452;11.636;2023-03-21T05:12:57;6.45;;;3.67;;
79284;SDS011;68734;50.452;11.636;2023-03-21T05:15:22;4.32;;;2.50;;
79284;SDS011;68734;50.452;11.636;2023-03-21T05:17:50;8.55;;;3.75;;
79284;SDS011;68734;50.452;11.636;2023-03-21T05:20:15;6.18;;;3.25;;
79284;SDS011;68734;50.452;11.636;2023-03-21T05:22:41;9.63;;;4.13;;
79284;SDS011;68734;50.452;11.636;2023-03-21T05:25:10;8.60;;;3.75;;
79284;SDS011;68734;50.452;11.636;2023-03-21T05:27:37;6.90;;;3.20;;
79284;SDS011;68734;50.452;11.636;2023-03-21T05:32:34;7.57;;;2.80;;
79284;SDS011;68734;50.452;11.636;2023-03-21T05:35:00;10.32;;;3.20;;
79284;SDS011;68734;50.452;11.636;2023-03-21T05:37:26;7.40;;;3.00;;
79284;SDS011;68734;50.452;11.636;2023-03-21T05:39:52;6.13;;;2.95;;
79284;SDS011;68734;50.452;11.636;2023-03-21T05:42:17;6.40;;;2.58;;
79284;SDS011;68734;50.452;11.636;2023-03-21T05:44:43;5.00;;;3.42;;
79284;SDS011;68734;50.452;11.636;2023-03-21T05:47:10;5.53;;;2.80;;
79284;SDS011;68734;50.452;11.636;2023-03-21T05:49:42;5.80;;;2.60;;
79284;SDS011;68734;50.452;11.636;2023-03-21T05:52:12;5.43;;;3.13;;
79284;SDS011;68734;50.452;11.636;2023-03-21T05:54:39;6.22;;;3.30;;
79284;SDS011;68734;50.452;11.636;2023-03-21T05:57:05;5.70;;;3.22;;
79284;SDS011;68734;50.452;11.636;2023-03-21T05:59:32;4.90;;;2.55;;
79284;SDS011;68734;50.452;11.636;2023-03-21T06:01:58;6.65;;;2.85;;
79284;SDS011;68734;50.452;11.636;2023-03-21T06:04:23;7.47;;;2.92;;
79284;SDS011;68734;50.452;11.636;2023-03-21T06:06:49;6.85;;;3.65;;
79284;SDS011;68734;50.452;11.636;2023-03-21T06:09:17;7.10;;;3.35;;
79284;SDS011;68734;50.452;11.636;2023-03-21T06:11:47;3.88;;;2.80;;
79284;SDS011;68734;50.452;11.636;2023-03-21T06:14:14;7.32;;;3.08;;
79284;SDS011;68734;50.452;11.636;2023-03-21T06:16:40;5.65;;;2.90;;
79284;SDS011;68734;50.452;11.636;2023-03-21T06:19:09;6.03;;;3.08;;
79284;SDS011;68734;50.452;11.636;2023-03-21T06:21:34;5.57;;;2.95;;
79284;SDS011;68734;50.452;11.636;2023-03-21T06:24:00;3.92;;;2.55;;
79284;SDS011;68734;50.452;11.636;2023-03-21T06:26:25;5.00;;;2.72;;
79284;SDS011;68734;50.452;11.636;2023-03-21T06:28:53;6.13;;;2.90;;
79284;SDS011;68734;50.452;11.636;2023-03-21T06:31:19;7.20;;;3.28;;
79284;SDS011;68734;50.452;11.636;2023-03-21T06:33:49;7.32;;;3.35;;
79284;SDS011;68734;50.452;11.636;2023-03-21T06:36:15;5.53;;;3.22;;
79284;SDS011;68734;50.452;11.636;2023-03-21T06:38:41;8.05;;;4.63;;
79284;SDS011;68734;50.452;11.636;2023-03-21T06:41:09;7.63;;;4.28;;
79284;SDS011;68734;50.452;11.636;2023-03-21T06:43:37;8.07;;;4.05;;
79284;SDS011;68734;50.452;11.636;2023-03-21T06:46:02;8.35;;;4.80;;
79284;SDS011;68734;50.452;11.636;2023-03-21T06:48:28;6.85;;;3.83;;
79284;SDS011;68734;50.452;11.636;2023-03-21T06:50:54;11.20;;;4.90;;
79284;SDS011;68734;50.452;11.636;2023-03-21T06:53:23;14.80;;;7.43;;
79284;SDS011;68734;50.452;11.636;2023-03-21T06:55:51;17.92;;;8.52;;
79284;SDS011;68734;50.452;11.636;2023-03-21T06:58:20;9.57;;;4.25;;
79284;SDS011;68734;50.452;11.636;2023-03-21T07:00:46;7.65;;;3.83;;
79284;SDS011;68734;50.452;11.636;2023-03-21T07:03:12;12.50;;;5.10;;
79284;SDS011;68734;50.452;11.636;2023-03-21T07:05:40;13.02;;;3.90;;
79284;SDS011;68734;50.452;11.636;2023-03-21T07:08:06;6.82;;;3.35;;
79284;SDS011;68734;50.452;11.636;2023-03-21T07:10:43;5.57;;;3.45;;
79284;SDS011;68734;50.452;11.636;2023-03-21T07:13:10;9.73;;;3.35;;
79284;SDS011;68734;50.452;11.636;2023-03-21T07:15:35;8.20;;;4.22;;
79284;SDS011;68734;50.452;11.636;2023-03-21T07:18:02;5.80;;;3.22;;
79284;SDS011;68734;50.452;11.636;2023-03-21T07:20:29;12.82;;;4.72;;
79284;SDS011;68734;50.452;11.636;2023-03-21T07:22:55;6.65;;;3.35;;
79284;SDS011;68734;50.452;11.636;2023-03-21T07:25:21;6.60;;;3.72;;
79284;SDS011;68734;50.452;11.636;2023-03-21T07:27:46;7.68;;;3.35;;
79284;SDS011;68734;50.452;11.636;2023-03-21T07:30:12;6.18;;;2.83;;
79284;SDS011;68734;50.452;11.636;2023-03-21T07:32:38;7.35;;;3.22;;
79284;SDS011;68734;50.452;11.636;2023-03-21T07:35:05;4.82;;;2.60;;
79284;SDS011;68734;50.452;11.636;2023-03-21T07:37:35;4.82;;;2.95;;
79284;SDS011;68734;50.452;11.636;2023-03-21T07:40:03;9.48;;;3.70;;
79284;SDS011;68734;50.452;11.636;2023-03-21T07:42:36;5.93;;;3.67;;
79284;SDS011;68734;50.452;11.636;2023-03-21T07:45:03;5.38;;;3.13;;
79284;SDS011;68734;50.452;11.636;2023-03-21T07:47:29;7.30;;;3.28;;
79284;SDS011;68734;50.452;11.636;2023-03-21T07:49:58;5.10;;;3.15;;
79284;SDS011;68734;50.452;11.636;2023-03-21T07:52:24;6.35;;;4.05;;
79284;SDS011;68734;50.452;11.636;2023-03-21T07:54:50;3.08;;;2.15;;
79284;SDS011;68734;50.452;11.636;2023-03-21T07:57:18;4.93;;;2.53;;
79284;SDS011;68734;50.452;11.636;2023-03-21T07:59:43;3.72;;;2.08;;
79284;SDS011;68734;50.452;11.636;2023-03-21T08:02:10;2.67;;;1.90;;
79284;SDS011;68734;50.452;11.636;2023-03-21T08:04:38;3.72;;;1.60;;
79284;SDS011;68734;50.452;11.636;2023-03-21T08:07:04;3.03;;;1.75;;
79284;SDS011;68734;50.452;11.636;2023-03-21T08:09:29;3.47;;;1.85;;
79284;SDS011;68734;50.452;11.636;2023-03-21T08:11:55;3.45;;;2.22;;
79284;SDS011;68734;50.452;11.636;2023-03-21T08:14:20;7.28;;;2.78;;
79284;SDS011;68734;50.452;11.636;2023-03-21T08:16:46;6.03;;;3.45;;
79284;SDS011;68734;50.452;11.636;2023-03-21T08:19:11;4.00;;;2.25;;
79284;SDS011;68734;50.452;11.636;2023-03-21T08:21:37;5.47;;;2.25;;
79284;SDS011;68734;50.452;11.636;2023-03-21T08:24:03;6.35;;;3.15;;
79284;SDS011;68734;50.452;11.636;2023-03-21T08:26:31;5.20;;;2.70;;
79284;SDS011;68734;50.452;11.636;2023-03-21T08:28:58;3.38;;;2.15;;
79284;SDS011;68734;50.452;11.636;2023-03-21T08:31:26;4.63;;;2.17;;
79284;SDS011;68734;50.452;11.636;2023-03-21T08:33:52;4.10;;;2.15;;
79284;SDS011;68734;50.452;11.636;2023-03-21T08:36:20;4.53;;;2.10;;
79284;SDS011;68734;50.452;11.636;2023-03-21T08:38:46;3.47;;;2.05;;
79284;SDS011;68734;50.452;11.636;2023-03-21T08:41:14;4.22;;;2.28;;
79284;SDS011;68734;50.452;11.636;2023-03-21T08:43:44;5.28;;;2.10;;
79284;SDS011;68734;50.452;11.636;2023-03-21T08:46:12;4.72;;;3.08;;
79284;SDS011;68734;50.452;11.636;2023-03-21T08:48:38;4.00;;;2.22;;
79284;SDS011;68734;50.452;11.636;2023-03-21T08:51:04;3.35;;;2.42;;
79284;SDS011;68734;50.452;11.636;2023-03-21T08:53:30;4.75;;;2.33;;
79284;SDS011;68734;50.452;11.636;2023-03-21T08:55:56;5.82;;;2.53;;
79284;SDS011;68734;50.452;11.636;2023-03-21T08:58:21;7.13;;;3.00;;
79284;SDS011;68734;50.452;11.636;2023-03-21T09:00:47;3.80;;;2.08;;
79284;SDS011;68734;50.452;11.636;2023-03-21T09:03:15;6.97;;;2.92;;
79284;SDS011;68734;50.452;11.636;2023-03-21T09:05:42;4.18;;;2.05;;
79284;SDS011;68734;50.452;11.636;2023-03-21T09:08:11;2.35;;;1.77;;
79284;SDS011;68734;50.452;11.636;2023-03-21T09:10:42;4.15;;;1.65;;
79284;SDS011;68734;50.452;11.636;2023-03-21T09:13:10;3.25;;;1.83;;
79284;SDS011;68734;50.452;11.636;2023-03-21T09:15:37;3.20;;;1.60;;
79284;SDS011;68734;50.452;11.636;2023-03-21T09:18:05;3.80;;;1.55;;
79284;SDS011;68734;50.452;11.636;2023-03-21T09:20:42;4.95;;;1.77;;
79284;SDS011;68734;50.452;11.636;2023-03-21T09:23:11;4.47;;;1.80;;
79284;SDS011;68734;50.452;11.636;2023-03-21T09:25:38;2.70;;;1.48;;
79284;SDS011;68734;50.452;11.636;2023-03-21T09:28:04;4.38;;;1.27;;
79284;SDS011;68734;50.452;11.636;2023-03-21T09:30:34;2.83;;;1.73;;
79284;SDS011;68734;50.452;11.636;2023-03-21T09:33:01;3.28;;;2.15;;
79284;SDS011;68734;50.452;11.636;2023-03-21T09:35:30;2.47;;;1.15;;
79284;SDS011;68734;50.452;11.636;2023-03-21T09:37:56;3.65;;;1.77;;
79284;SDS011;68734;50.452;11.636;2023-03-21T09:45:48;5.35;;;1.50;;
79284;SDS011;68734;50.452;11.636;2023-03-21T09:48:29;2.58;;;1.45;;
79284;SDS011;68734;50.452;11.636;2023-03-21T09:51:09;3.53;;;2.00;;
79284;SDS011;68734;50.452;11.636;2023-03-21T09:53:46;3.63;;;1.88;;
79284;SDS011;68734;50.452;11.636;2023-03-21T09:56:13;5.68;;;2.10;;
79284;SDS011;68734;50.452;11.636;2023-03-21T09:58:43;3.90;;;2.70;;
79284;SDS011;68734;50.452;11.636;2023-03-21T10:01:18;5.43;;;1.73;;
79284;SDS011;68734;50.452;11.636;2023-03-21T10:03:59;4.68;;;1.63;;
79284;SDS011;68734;50.452;11.636;2023-03-21T10:06:27;6.50;;;2.08;;
79284;SDS011;68734;50.452;11.636;2023-03-21T10:14:41;5.00;;;2.10;;
79284;SDS011;68734;50.452;11.636;2023-03-21T10:19:55;4.60;;;2.20;;
79284;SDS011;68734;50.452;11.636;2023-03-21T10:22:34;3.95;;;2.15;;
79284;SDS011;68734;50.452;11.636;2023-03-21T10:25:03;2.72;;;2.05;;
79284;SDS011;68734;50.452;11.636;2023-03-21T10:27:30;3.70;;;2.22;;
79284;SDS011;68734;50.452;11.636;2023-03-21T10:29:58;3.35;;;1.75;;
79284;SDS011;68734;50.452;11.636;2023-03-21T10:32:25;5.25;;;1.70;;
79284;SDS011;68734;50.452;11.636;2023-03-21T10:34:53;6.43;;;2.45;;
79284;SDS011;68734;50.452;11.636;2023-03-21T10:37:20;5.22;;;2.30;;
79284;SDS011;68734;50.452;11.636;2023-03-21T10:39:48;7.95;;;3.33;;
79284;SDS011;68734;50.452;11.636;2023-03-21T10:42:23;4.95;;;1.52;;
79284;SDS011;68734;50.452;11.636;2023-03-21T10:44:52;3.47;;;2.47;;
79284;SDS011;68734;50.452;11.636;2023-03-21T10:47:19;5.60;;;1.70;;
79284;SDS011;68734;50.452;11.636;2023-03-21T10:49:47;2.33;;;1.40;;
79284;SDS011;68734;50.452;11.636;2023-03-21T10:52:13;2.00;;;1.45;;
79284;SDS011;68734;50.452;11.636;2023-03-21T10:54:43;3.60;;;1.48;;
79284;SDS011;68734;50.452;11.636;2023-03-21T10:57:14;4.50;;;1.63;;
79284;SDS011;68734;50.452;11.636;2023-03-21T11:02:25;2.22;;;1.40;;
79284;SDS011;68734;50.452;11.636;2023-03-21T11:04:54;3.25;;;1.80;;
79284;SDS011;68734;50.452;11.636;2023-03-21T11:07:20;3.30;;;1.33;;
79284;SDS011;68734;50.452;11.636;2023-03-21T11:09:53;3.38;;;1.65;;
79284;SDS011;68734;50.452;11.636;2023-03-21T11:12:30;2.78;;;1.63;;
79284;SDS011;68734;50.452;11.636;2023-03-21T11:18:16;5.72;;;2.35;;
79284;SDS011;68734;50.452;11.636;2023-03-21T11:20:48;4.15;;;2.20;;
79284;SDS011;68734;50.452;11.636;2023-03-21T11:23:19;3.05;;;1.20;;
79284;SDS011;68734;50.452;11.636;2023-03-21T11:25:49;4.10;;;1.83;;
79284;SDS011;68734;50.452;11.636;2023-03-21T11:28:17;3.80;;;1.88;;
79284;SDS011;68734;50.452;11.636;2023-03-21T11:30:50;4.05;;;1.98;;
79284;SDS011;68734;50.452;11.636;2023-03-21T11:33:21;3.08;;;1.35;;
79284;SDS011;68734;50.452;11.636;2023-03-21T11:35:58;6.65;;;2.13;;
79284;SDS011;68734;50.452;11.636;2023-03-21T11:38:36;4.22;;;1.50;;
79284;SDS011;68734;50.452;11.636;2023-03-21T11:41:04;3.10;;;1.10;;
79284;SDS011;68734;50.452;11.636;2023-03-21T11:43:31;2.85;;;1.50;;
79284;SDS011;68734;50.452;11.636;2023-03-21T11:46:12;1.77;;;1.40;;
79284;SDS011;68734;50.452;11.636;2023-03-21T11:48:42;2.03;;;1.42;;
79284;SDS011;68734;50.452;11.636;2023-03-21T11:56:59;2.38;;;1.55;;
79284;SDS011;68734;50.452;11.636;2023-03-21T12:05:22;1.88;;;0.80;;
79284;SDS011;68734;50.452;11.636;2023-03-21T12:07:58;1.50;;;0.88;;
79284;SDS011;68734;50.452;11.636;2023-03-21T12:21:47;2.95;;;0.90;;
79284;SDS011;68734;50.452;11.636;2023-03-21T12:43:21;3.17;;;1.05;;
79284;SDS011;68734;50.452;11.636;2023-03-21T12:46:07;1.77;;;1.17;;
79284;SDS011;68734;50.452;11.636;2023-03-21T12:48:45;3.33;;;1.17;;
79284;SDS011;68734;50.452;11.636;2023-03-21T12:51:17;1.38;;;1.08;;
79284;SDS011;68734;50.452;11.636;2023-03-21T12:53:58;2.95;;;1.25;;
79284;SDS011;68734;50.452;11.636;2023-03-21T13:07:40;4.45;;;1.40;;
79284;SDS011;68734;50.452;11.636;2023-03-21T13:10:17;2.13;;;1.67;;
79284;SDS011;68734;50.452;11.636;2023-03-21T13:20:59;1.80;;;0.80;;
79284;SDS011;68734;50.452;11.636;2023-03-21T13:23:35;3.03;;;1.08;;
79284;SDS011;68734;50.452;11.636;2023-03-21T13:26:02;2.90;;;1.33;;
79284;SDS011;68734;50.452;11.636;2023-03-21T13:28:38;3.20;;;1.10;;
79284;SDS011;68734;50.452;11.636;2023-03-21T13:33:39;2.53;;;1.10;;
79284;SDS011;68734;50.452;11.636;2023-03-21T13:36:12;2.30;;;0.82;;
79284;SDS011;68734;50.452;11.636;2023-03-21T13:38:40;1.85;;;1.00;;
79284;SDS011;68734;50.452;11.636;2023-03-21T13:41:07;2.92;;;0.70;;
79284;SDS011;68734;50.452;11.636;2023-03-21T13:49:00;2.25;;;1.15;;
79284;SDS011;68734;50.452;11.636;2023-03-21T13:59:35;1.58;;;0.90;;
79284;SDS011;68734;50.452;11.636;2023-03-21T14:04:36;1.90;;;1.00;;
79284;SDS011;68734;50.452;11.636;2023-03-21T14:12:10;4.32;;;1.52;;
79284;SDS011;68734;50.452;11.636;2023-03-21T14:14:42;1.90;;;1.40;;
79284;SDS011;68734;50.452;11.636;2023-03-21T14:17:21;3.55;;;1.50;;
79284;SDS011;68734;50.452;11.636;2023-03-21T14:19:56;3.50;;;1.75;;
79284;SDS011;68734;50.452;11.636;2023-03-21T14:22:25;3.13;;;1.45;;
79284;SDS011;68734;50.452;11.636;2023-03-21T14:24:58;3.72;;;1.20;;
79284;SDS011;68734;50.452;11.636;2023-03-21T14:27:27;3.90;;;1.52;;
79284;SDS011;68734;50.452;11.636;2023-03-21T14:29:55;4.72;;;1.05;;
79284;SDS011;68734;50.452;11.636;2023-03-21T14:32:23;3.15;;;1.67;;
79284;SDS011;68734;50.452;11.636;2023-03-21T14:34:52;1.67;;;1.00;;
79284;SDS011;68734;50.452;11.636;2023-03-21T14:37:52;2.35;;;1.23;;
79284;SDS011;68734;50.452;11.636;2023-03-21T14:40:19;7.68;;;1.65;;
79284;SDS011;68734;50.452;11.636;2023-03-21T14:42:48;3.28;;;1.60;;
79284;SDS011;68734;50.452;11.636;2023-03-21T14:45:23;2.08;;;1.02;;
79284;SDS011;68734;50.452;11.636;2023-03-21T14:50:52;1.60;;;1.13;;
79284;SDS011;68734;50.452;11.636;2023-03-21T14:53:26;3.83;;;1.25;;
79284;SDS011;68734;50.452;11.636;2023-03-21T14:58:23;4.93;;;1.45;;
79284;SDS011;68734;50.452;11.636;2023-03-21T15:00:50;2.42;;;1.10;;
79284;SDS011;68734;50.452;11.636;2023-03-21T15:03:18;3.20;;;1.45;;
79284;SDS011;68734;50.452;11.636;2023-03-21T15:05:46;3.63;;;1.95;;
79284;SDS011;68734;50.452;11.636;2023-03-21T15:08:16;2.85;;;1.25;;
79284;SDS011;68734;50.452;11.636;2023-03-21T15:11:26;5.60;;;2.03;;
79284;SDS011;68734;50.452;11.636;2023-03-21T15:13:45;3.30;;;1.65;;
79284;SDS011;68734;50.452;11.636;2023-03-21T15:16:19;2.30;;;1.48;;
79284;SDS011;68734;50.452;11.636;2023-03-21T15:18:45;3.78;;;1.48;;
79284;SDS011;68734;50.452;11.636;2023-03-21T15:21:34;5.18;;;1.95;;
79284;SDS011;68734;50.452;11.636;2023-03-21T15:24:05;6.28;;;1.20;;
79284;SDS011;68734;50.452;11.636;2023-03-21T15:26:39;3.17;;;1.20;;
79284;SDS011;68734;50.452;11.636;2023-03-21T15:29:07;3.42;;;1.88;;
79284;SDS011;68734;50.452;11.636;2023-03-21T15:31:34;2.72;;;1.30;;
79284;SDS011;68734;50.452;11.636;2023-03-21T15:34:03;2.00;;;1.13;;
79284;SDS011;68734;50.452;11.636;2023-03-21T15:39:01;2.40;;;1.30;;
79284;SDS011;68734;50.452;11.636;2023-03-21T15:41:30;3.08;;;1.55;;
79284;SDS011;68734;50.452;11.636;2023-03-21T15:44:01;4.60;;;1.77;;
79284;SDS011;68734;50.452;11.636;2023-03-21T15:46:33;7.63;;;2.38;;
79284;SDS011;68734;50.452;11.636;2023-03-21T15:52:11;5.65;;;2.20;;
79284;SDS011;68734;50.452;11.636;2023-03-21T15:54:48;3.85;;;1.75;;
79284;SDS011;68734;50.452;11.636;2023-03-21T15:57:24;4.72;;;2.05;;
79284;SDS011;68734;50.452;11.636;2023-03-21T16:00:42;3.72;;;2.00;;
79284;SDS011;68734;50.452;11.636;2023-03-21T16:02:50;2.83;;;1.63;;
79284;SDS011;68734;50.452;11.636;2023-03-21T16:05:30;3.17;;;1.60;;
79284;SDS011;68734;50.452;11.636;2023-03-21T16:10:53;3.45;;;1.55;;
79284;SDS011;68734;50.452;11.636;2023-03-21T16:13:18;3.10;;;1.90;;
79284;SDS011;68734;50.452;11.636;2023-03-21T16:15:46;3.90;;;2.50;;
79284;SDS011;68734;50.452;11.636;2023-03-21T16:18:15;8.60;;;2.08;;
79284;SDS011;68734;50.452;11.636;2023-03-21T16:20:41;3.97;;;1.80;;
79284;SDS011;68734;50.452;11.636;2023-03-21T16:23:12;2.47;;;1.45;;
79284;SDS011;68734;50.452;11.636;2023-03-21T16:25:39;4.05;;;2.03;;
79284;SDS011;68734;50.452;11.636;2023-03-21T16:28:11;5.18;;;2.88;;
79284;SDS011;68734;50.452;11.636;2023-03-21T16:30:39;4.40;;;1.95;;
79284;SDS011;68734;50.452;11.636;2023-03-21T16:33:11;8.30;;;2.50;;
79284;SDS011;68734;50.452;11.636;2023-03-21T16:35:37;3.55;;;2.35;;
79284;SDS011;68734;50.452;11.636;2023-03-21T16:38:03;4.15;;;2.15;;
79284;SDS011;68734;50.452;11.636;2023-03-21T16:40:33;4.93;;;2.60;;
79284;SDS011;68734;50.452;11.636;2023-03-21T16:43:04;7.78;;;2.92;;
79284;SDS011;68734;50.452;11.636;2023-03-21T16:45:33;6.93;;;2.95;;
79284;SDS011;68734;50.452;11.636;2023-03-21T16:47:59;9.18;;;2.10;;
79284;SDS011;68734;50.452;11.636;2023-03-21T16:52:51;8.30;;;3.08;;
79284;SDS011;68734;50.452;11.636;2023-03-21T16:55:17;5.75;;;3.75;;
79284;SDS011;68734;50.452;11.636;2023-03-21T16:57:43;7.60;;;6.90;;
79284;SDS011;68734;50.452;11.636;2023-03-21T17:00:11;4.07;;;3.60;;
79284;SDS011;68734;50.452;11.636;2023-03-21T17:02:38;4.43;;;2.63;;
79284;SDS011;68734;50.452;11.636;2023-03-21T17:05:03;6.63;;;2.90;;
79284;SDS011;68734;50.452;11.636;2023-03-21T17:07:31;6.70;;;3.78;;
79284;SDS011;68734;50.452;11.636;2023-03-21T17:09:56;5.57;;;2.92;;
79284;SDS011;68734;50.452;11.636;2023-03-21T17:12:22;8.77;;;2.78;;
79284;SDS011;68734;50.452;11.636;2023-03-21T17:14:47;5.50;;;3.30;;
79284;SDS011;68734;50.452;11.636;2023-03-21T17:17:13;4.70;;;2.92;;
79284;SDS011;68734;50.452;11.636;2023-03-21T17:19:40;6.22;;;3.20;;
79284;SDS011;68734;50.452;11.636;2023-03-21T17:22:06;6.85;;;3.60;;
79284;SDS011;68734;50.452;11.636;2023-03-21T17:24:35;6.30;;;4.00;;
79284;SDS011;68734;50.452;11.636;2023-03-21T17:27:01;8.82;;;5.82;;
79284;SDS011;68734;50.452;11.636;2023-03-21T17:29:28;7.57;;;4.72;;
79284;SDS011;68734;50.452;11.636;2023-03-21T17:31:56;5.93;;;3.13;;
79284;SDS011;68734;50.452;11.636;2023-03-21T17:34:22;7.63;;;2.75;;
79284;SDS011;68734;50.452;11.636;2023-03-21T17:36:48;4.53;;;2.78;;